Latest Weather Observations for Bickley

IDW60901

Issued at 11:01 pm WST Saturday 30 April 2016 (issued every 10 minutes, with the page automatically refreshed every 10 minutes)

About weather observations | Map of Perth area stations | Latest observations for Perth area | Other Formats
Station Details ID: 009240 Name: BICKLEY Lat: -32.01 Lon: 116.14 Height: 384.0 m
Data from the previous 72 hours. | See also: Recent months at Bickley
Date/Time
WST
Tmp

°C
App
Tmp
°C
Dew
Point
°C
Rel
Hum
%
Delta-T

°C
Wind Press
QNH
hPa
Press
MSL
hPa
Rain
since
9 am
mm
Dir
 
Spd
km/h
Gust
km/h
Spd
kts
Gust
kts
30/11:00pm 10.3 - - - - SSE 13 20 7 11 - - 0.0
30/10:30pm 10.2 - - - - SSE 13 17 7 9 - - 0.0
30/10:00pm 10.3 - - - - S 13 17 7 9 - - 0.0
30/09:30pm 10.3 - - - - S 11 17 6 9 - - 0.0
30/09:00pm 10.4 - - - - S 11 17 6 9 - - 0.0
30/08:30pm 10.7 - - - - SSW 11 15 6 8 - - 0.0
30/08:00pm 11.2 - - - - SSW 11 15 6 8 - - 0.0
30/07:30pm 11.6 - - - - SSW 9 13 5 7 - - 0.0
30/07:00pm 12.2 - - - - SW 9 13 5 7 - - 0.0
30/06:30pm 13.0 11.0 7.0 67 3.0 SSW 7 11 4 6 - - 0.0
30/06:00pm 13.3 11.2 6.6 64 3.3 WSW 7 9 4 5 - - 0.0
30/05:30pm 13.7 11.5 6.1 60 3.7 W 7 13 4 7 - - 0.0
30/05:00pm 14.8 12.8 6.1 56 4.3 SW 6 9 3 5 - - 0.0
30/04:30pm 13.9 12.3 6.3 60 3.7 SSW 4 7 2 4 - - 0.0
30/04:00pm 14.6 12.0 5.9 56 4.2 S 9 13 5 7 - - 0.0
30/03:30pm 15.7 13.4 4.7 48 5.3 W 6 11 3 6 - - 0.0
30/03:00pm 14.8 12.9 6.6 58 4.1 SSW 6 11 3 6 - - 0.0
30/02:30pm 14.4 11.7 5.7 56 4.2 S 9 13 5 7 - - 0.0
30/02:00pm 14.5 12.2 5.0 53 4.5 SSW 6 11 3 6 - - 0.0
30/01:30pm 14.8 12.2 6.1 56 4.3 SW 9 17 5 9 - - 0.0
30/01:00pm 14.6 11.5 5.7 55 4.3 SSW 11 20 6 11 - - 0.0
30/12:30pm 13.7 10.8 4.8 55 4.2 SSW 9 15 5 8 - - 0.0
30/12:00pm 13.7 10.2 5.6 58 3.9 SSW 13 22 7 12 - - 0.0
30/11:30am 13.4 10.7 5.6 59 3.7 S 9 17 5 9 - - 0.0
30/11:00am 14.3 10.7 6.6 60 3.8 SSE 15 24 8 13 - - 0.0
30/10:30am 13.3 10.5 6.9 65 3.2 SSW 11 20 6 11 - - 0.0
30/10:00am 13.2 10.4 6.8 65 3.1 SSE 11 20 6 11 - - 0.0
30/09:30am 12.7 6.7 -42.1 1 9.7 SSE 11 17 6 9 - - 0.0
30/09:00am 11.8 5.8 -42.7 1 9.3 SSE 11 22 6 12 - - 4.8
30/08:30am 10.8 - - - - SE 11 17 6 9 - - 4.8
30/08:00am 9.8 - - - - SE 11 20 6 11 - - 4.8
30/07:30am 9.4 - - - - SE 11 17 6 9 - - 4.8
30/07:00am 9.1 - - - - SE 13 17 7 9 - - 4.8
30/06:30am 9.1 - - - - SE 11 15 6 8 - - 4.8
30/06:00am 9.3 - - - - SE 9 15 5 8 - - 4.8
30/05:30am 9.3 - - - - SSE 11 20 6 11 - - 4.8
30/05:00am 9.4 - - - - SSE 11 20 6 11 - - 4.8
30/04:30am 9.4 - - - - SE 11 15 6 8 - - 4.8
30/04:00am 9.3 - - - - SSE 11 17 6 9 - - 4.8
30/03:30am 9.2 - - - - SSE 11 20 6 11 - - 4.8
30/03:00am 9.8 3.8 -43.9 1 8.6 S 11 20 6 11 - - 4.8
30/02:30am 10.4 4.4 -37.0 2 8.7 S 11 24 6 13 - - 4.8
30/02:00am 10.7 4.0 -32.7 3 8.7 S 15 28 8 15 - - 4.8
30/01:30am 11.1 8.5 9.4 89 0.9 SSW 13 20 7 11 - - 4.8
30/01:00am 11.3 8.9 9.9 91 0.7 SSW 13 20 7 11 - - 4.8
30/12:30am 11.7 10.2 10.4 92 0.7 S 9 15 5 8 - - 4.6
30/12:00am 11.9 10.4 10.5 91 0.7 SSW 9 15 5 8 - - 4.6
 
Date/Time
WST
Tmp

°C
App
Tmp
°C
Dew
Point
°C
Rel
Hum
%
Delta-T

°C
Wind Press
QNH
hPa
Press
MSL
hPa
Rain
since
9 am
mm
Dir
 
Spd
km/h
Gust
km/h
Spd
kts
Gust
kts
29/11:30pm 12.0 10.5 10.7 92 0.7 SW 9 13 5 7 - - 4.4
29/11:00pm 12.0 10.2 10.7 92 0.7 SW 11 17 6 9 - - 4.4
29/10:30pm 12.2 10.1 11.1 93 0.6 SSW 13 22 7 12 - - 4.4
29/10:00pm 12.4 9.0 11.3 93 0.6 SW 20 41 11 22 - - 4.4
29/09:30pm 13.7 10.7 12.4 92 0.7 W 20 39 11 21 - - 3.0
29/09:00pm 13.6 9.3 12.0 90 0.9 W 26 46 14 25 - - 3.0
29/08:43pm 13.9 9.1 11.8 87 1.1 W 28 61 15 33 - - 2.8
29/08:30pm 14.7 10.3 11.8 83 1.6 W 26 43 14 23 - - 1.0
29/08:00pm 14.7 10.6 11.3 80 1.9 W 24 43 13 23 - - 0.8
29/07:52pm 14.6 9.6 11.0 79 1.9 WNW 28 52 15 28 - - 0.8
29/07:30pm 15.1 11.5 10.7 75 2.4 WNW 20 33 11 18 - - 0.8
29/07:00pm 15.1 11.1 10.5 74 2.5 WNW 22 35 12 19 - - 0.8
29/06:30pm 15.2 11.6 10.4 73 2.6 WNW 20 35 11 19 - - 0.8
29/06:00pm 15.0 10.9 10.2 73 2.6 W 22 33 12 18 - - 0.8
29/05:30pm 15.3 11.6 10.3 72 2.7 W 20 39 11 21 - - 0.8
29/05:00pm 15.7 12.0 10.0 69 3.0 W 20 32 11 17 - - 0.8
29/04:30pm 16.0 10.9 10.7 71 2.9 W 28 44 15 24 - - 0.8
29/04:00pm 16.0 11.6 10.3 69 3.1 W 24 46 13 25 - - 0.8
29/03:30pm 17.2 11.9 9.9 62 3.9 W 28 50 15 27 - - 0.8
29/03:00pm 16.8 11.8 11.1 69 3.1 W 28 50 15 27 - - 0.8
29/02:32pm 16.2 11.4 11.8 75 2.4 W 28 50 15 27 - - 0.8
29/02:30pm 16.2 12.3 12.2 77 2.2 W 24 43 13 23 - - 0.8
29/02:00pm 14.6 11.1 12.1 85 1.4 W 22 35 12 19 - - 0.8
29/01:36pm 14.6 9.5 10.6 77 2.1 W 28 46 15 25 - - 0.8
29/01:30pm 16.0 11.3 10.5 70 3.0 W 26 46 14 25 - - 0.6
29/01:00pm 16.5 13.0 12.1 75 2.5 W 22 44 12 24 - - 0.6
29/12:41pm 15.0 10.1 11.2 78 2.1 W 28 46 15 25 - - 0.6
29/12:30pm 16.7 12.2 11.4 71 2.9 W 26 43 14 23 - - 0.2
29/12:08pm 16.8 11.7 10.6 67 3.4 WNW 28 46 15 25 - - 0.2
29/12:00pm 17.8 13.9 13.3 75 2.6 WNW 26 41 14 22 - - 0.2
29/11:30am 15.2 12.7 13.6 90 0.9 WNW 19 32 10 17 - - 0.2
29/11:00am 15.2 13.4 13.4 89 1.0 WNW 15 26 8 14 - - 0.2
29/10:30am 14.2 11.2 12.1 87 1.2 W 19 30 10 16 - - 0.2
29/10:00am 14.8 12.8 11.6 81 1.8 WNW 13 24 7 13 - - 0.0
29/09:30am 15.6 - - - - W 15 24 8 13 - - 0.0
29/09:00am 14.8 - - - - WNW 13 26 7 14 - - 5.8
29/08:30am 15.0 - - - - W 19 30 10 16 - - 5.8
29/08:00am 13.4 - - - - WNW 15 22 8 12 - - 5.8
29/07:30am 12.9 - - - - WNW 15 22 8 12 - - 5.8
29/07:00am 13.2 - - - - W 15 22 8 12 - - 5.6
29/06:30am 13.2 - - - - W 17 28 9 15 - - 5.6
29/06:00am 12.6 - - - - WNW 17 26 9 14 - - 5.6
29/05:30am 12.2 - - - - W 15 20 8 11 - - 5.6
29/05:00am 12.3 - - - - W 15 22 8 12 - - 5.6
29/04:30am 12.9 - - - - W 15 22 8 12 - - 5.6
29/04:00am 13.1 - - - - W 13 20 7 11 - - 5.6
29/03:30am 12.9 - - - - W 13 22 7 12 - - 5.6
29/03:00am 12.8 - - - - W 11 17 6 9 - - 5.4
29/02:30am 12.7 - - - - W 13 17 7 9 - - 5.4
29/02:00am 13.1 - - - - W 13 17 7 9 - - 5.4
29/01:30am 12.9 - - - - WNW 11 15 6 8 - - 5.4
29/01:00am 12.4 - - - - WNW 9 15 5 8 - - 5.4
29/12:30am 12.6 - - - - NW 9 13 5 7 - - 5.4
29/12:00am 12.5 - - - - WSW 9 13 5 7 - - 5.4
 
Date/Time
WST
Tmp

°C
App
Tmp
°C
Dew
Point
°C
Rel
Hum
%
Delta-T

°C
Wind Press
QNH
hPa
Press
MSL
hPa
Rain
since
9 am
mm
Dir
 
Spd
km/h
Gust
km/h
Spd
kts
Gust
kts
28/11:30pm 12.6 - - - - WSW 9 13 5 7 - - 5.4
28/11:00pm 13.4 - - - - W 9 15 5 8 - - 5.4
28/10:30pm 13.3 - - - - W 13 20 7 11 - - 5.4
28/10:00pm 13.3 - - - - W 9 13 5 7 - - 5.4
28/09:30pm 13.0 - - - - W 13 17 7 9 - - 5.4
28/09:00pm 13.2 - - - - WSW 13 17 7 9 - - 5.4
28/08:30pm 13.3 - - - - WSW 11 17 6 9 - - 5.4
28/08:00pm 13.4 - - - - WSW 13 20 7 11 - - 5.4
28/07:30pm 13.4 - - - - WSW 15 22 8 12 - - 5.4
28/07:00pm 13.6 - - - - WSW 13 20 7 11 - - 5.4
28/06:30pm 13.9 - - - - WSW 13 24 7 13 - - 5.4
28/06:00pm 14.0 - - - - W 17 30 9 16 - - 5.4
28/05:30pm 14.1 - - - - W 15 22 8 12 - - 5.4
28/05:00pm 14.4 - - - - W 13 20 7 11 - - 5.4
28/04:30pm 14.5 - - - - W 15 26 8 14 - - 5.4
28/04:00pm 14.1 - - - - W 17 30 9 16 - - 3.8
28/03:30pm 14.4 9.8 12.3 87 1.2 W 28 57 15 31 - - 2.4
28/03:07pm 15.6 11.3 13.3 86 1.3 W 28 48 15 26 - - 2.2
28/03:00pm 16.1 12.8 14.1 88 1.2 W 24 43 13 23 - - 2.2
28/02:30pm 15.1 11.6 13.3 89 1.0 W 24 39 13 21 - - 2.2
28/02:00pm 16.1 12.2 13.2 83 1.6 WNW 26 43 14 23 - - 0.8
28/01:30pm 15.1 10.6 12.6 85 1.4 WNW 28 48 15 26 - - 0.8
28/01:00pm 15.9 11.2 11.9 77 2.2 WNW 28 48 15 26 - - 0.4
28/12:34pm 14.9 10.4 12.6 86 1.3 WNW 28 48 15 26 - - 0.4
28/12:30pm 14.4 10.1 12.1 86 1.3 WNW 26 46 14 25 - - 0.4
28/12:07pm 15.1 9.9 10.3 73 2.6 W 28 54 15 29 - - 0.2
28/12:00pm 15.5 11.5 10.3 71 2.8 W 22 44 12 24 - - 0.2
28/11:39am 15.8 10.3 9.2 65 3.5 WNW 28 59 15 32 - - 0.2
28/11:30am 16.0 - - - - WNW 26 46 14 25 - - 0.2
28/11:00am 16.5 - - - - NW 22 41 12 22 - - 0.2
28/10:30am 15.1 - - - - WNW 17 26 9 14 - - 0.2
28/10:00am 13.5 - - - - WNW 19 41 10 22 - - 0.2
28/09:30am 12.6 - - - - WNW 15 28 8 15 - - 0.2
28/09:00am 11.8 - - - - NW 17 28 9 15 - - 1.2
28/08:30am 11.7 - - - - NW 11 20 6 11 - - 1.2
28/08:00am 11.5 - - - - NW 15 22 8 12 - - 1.2
28/07:30am 11.0 - - - - NW 11 17 6 9 - - 1.2
28/07:00am 10.6 - - - - NNW 13 22 7 12 - - 1.2
28/06:30am 10.8 - - - - NNW 9 17 5 9 - - 1.0
28/06:00am 10.9 - - - - NW 11 17 6 9 - - 1.0
28/05:30am 10.8 - - - - WNW 15 24 8 13 - - 1.0
28/05:00am 10.5 - - - - NNW 11 15 6 8 - - 0.4
28/04:30am 10.0 - - - - NW 9 15 5 8 - - 0.4
28/04:00am 9.8 - - - - NW 13 20 7 11 - - 0.4
28/03:30am 10.3 - - - - NW 13 20 7 11 - - 0.0
28/03:00am 10.3 - - - - NNW 13 20 7 11 - - 0.0
28/02:30am 10.3 - - - - NW 9 15 5 8 - - 0.0
28/02:00am 10.1 - - - - NNW 11 17 6 9 - - 0.0
28/01:30am 10.8 - - - - NNW 13 20 7 11 - - 0.0
28/01:00am 10.4 - - - - NNW 11 17 6 9 - - 0.0
28/12:30am 10.6 - - - - NNW 13 17 7 9 - - 0.0
28/12:00am 10.6 - - - - N 11 15 6 8 - - 0.0
 
Date/Time
WST
Tmp

°C
App
Tmp
°C
Dew
Point
°C
Rel
Hum
%
Delta-T

°C
Wind Press
QNH
hPa
Press
MSL
hPa
Rain
since
9 am
mm
Dir
 
Spd
km/h
Gust
km/h
Spd
kts
Gust
kts
27/11:30pm 10.2 - - - - N 11 13 6 7 - - 0.0

Latest Capital City Observations: Canberra | Sydney | Melbourne | Brisbane | Adelaide | Perth | Hobart | Darwin

Other Formats:

Comma delimited format used in spreadsheet applications
http://www.bom.gov.au/fwo/IDW60901/IDW60901.95610.axf

JavaScript Object Notation format (JSON) in row-major order
http://www.bom.gov.au/fwo/IDW60901/IDW60901.95610.json